sensor_id;sensor_type;location;lat;lon;timestamp;P1;P2;P0
77239;PMS7003;66258;53.170;-2.240;2024-01-11T00:00:53;16.75;15.75;13.00
77239;PMS7003;66258;53.170;-2.240;2024-01-11T00:03:19;15.50;15.50;9.00
77239;PMS7003;66258;53.170;-2.240;2024-01-11T00:05:46;15.25;15.25;7.50
77239;PMS7003;66258;53.170;-2.240;2024-01-11T00:08:14;8.75;8.75;6.00
77239;PMS7003;66258;53.170;-2.240;2024-01-11T00:10:41;7.50;7.50;6.25
77239;PMS7003;66258;53.170;-2.240;2024-01-11T00:13:08;28.00;26.50;20.00
77239;PMS7003;66258;53.170;-2.240;2024-01-11T00:15:35;13.00;13.00;7.00
77239;PMS7003;66258;53.170;-2.240;2024-01-11T00:18:02;10.25;10.25;6.00
77239;PMS7003;66258;53.170;-2.240;2024-01-11T00:20:29;14.50;12.25;6.75
77239;PMS7003;66258;53.170;-2.240;2024-01-11T00:22:57;15.00;11.50;4.50
77239;PMS7003;66258;53.170;-2.240;2024-01-11T00:25:26;15.50;13.25;7.50
77239;PMS7003;66258;53.170;-2.240;2024-01-11T00:27:54;11.75;10.75;5.50
77239;PMS7003;66258;53.170;-2.240;2024-01-11T00:30:23;10.50;10.50;6.75
77239;PMS7003;66258;53.170;-2.240;2024-01-11T00:32:50;13.25;12.50;7.00
77239;PMS7003;66258;53.170;-2.240;2024-01-11T00:35:18;17.00;13.75;10.00
77239;PMS7003;66258;53.170;-2.240;2024-01-11T00:37:46;15.25;12.75;6.00
77239;PMS7003;66258;53.170;-2.240;2024-01-11T00:40:14;17.00;17.00;11.75
77239;PMS7003;66258;53.170;-2.240;2024-01-11T00:42:43;32.25;28.50;21.50
77239;PMS7003;66258;53.170;-2.240;2024-01-11T00:45:11;30.75;27.25;21.75
77239;PMS7003;66258;53.170;-2.240;2024-01-11T00:47:39;19.50;14.50;9.25
77239;PMS7003;66258;53.170;-2.240;2024-01-11T00:50:08;15.50;14.00;7.00
77239;PMS7003;66258;53.170;-2.240;2024-01-11T00:52:35;10.25;9.50;4.75
77239;PMS7003;66258;53.170;-2.240;2024-01-11T00:55:03;13.50;8.00;5.25
77239;PMS7003;66258;53.170;-2.240;2024-01-11T00:57:31;13.75;12.25;6.00
77239;PMS7003;66258;53.170;-2.240;2024-01-11T01:00:01;9.75;9.25;5.00
77239;PMS7003;66258;53.170;-2.240;2024-01-11T01:02:29;10.50;9.75;5.00
77239;PMS7003;66258;53.170;-2.240;2024-01-11T01:04:56;6.75;6.75;3.50
77239;PMS7003;66258;53.170;-2.240;2024-01-11T01:07:24;12.25;12.25;8.50
77239;PMS7003;66258;53.170;-2.240;2024-01-11T01:09:51;9.75;8.00;3.75
77239;PMS7003;66258;53.170;-2.240;2024-01-11T01:12:19;8.50;6.75;2.50
77239;PMS7003;66258;53.170;-2.240;2024-01-11T01:14:47;6.25;6.25;4.25
77239;PMS7003;66258;53.170;-2.240;2024-01-11T01:17:16;9.00;4.75;3.00
77239;PMS7003;66258;53.170;-2.240;2024-01-11T01:19:43;4.25;3.50;2.00
77239;PMS7003;66258;53.170;-2.240;2024-01-11T01:22:11;13.25;13.25;10.50
77239;PMS7003;66258;53.170;-2.240;2024-01-11T01:24:40;9.50;8.25;4.00
77239;PMS7003;66258;53.170;-2.240;2024-01-11T01:27:07;7.50;7.50;3.75
77239;PMS7003;66258;53.170;-2.240;2024-01-11T01:29:35;4.00;3.75;2.50
77239;PMS7003;66258;53.170;-2.240;2024-01-11T01:32:03;7.50;7.50;5.00
77239;PMS7003;66258;53.170;-2.240;2024-01-11T01:34:32;3.00;3.00;2.00
77239;PMS7003;66258;53.170;-2.240;2024-01-11T01:37:00;15.75;14.75;9.00
77239;PMS7003;66258;53.170;-2.240;2024-01-11T01:39:28;4.25;4.25;2.25
77239;PMS7003;66258;53.170;-2.240;2024-01-11T01:41:54;6.75;6.50;3.25
77239;PMS7003;66258;53.170;-2.240;2024-01-11T01:44:22;8.25;5.50;3.00
77239;PMS7003;66258;53.170;-2.240;2024-01-11T01:46:51;6.50;4.00;3.00
77239;PMS7003;66258;53.170;-2.240;2024-01-11T01:49:19;9.75;5.00;3.00
77239;PMS7003;66258;53.170;-2.240;2024-01-11T01:51:49;6.75;5.00;2.50
77239;PMS7003;66258;53.170;-2.240;2024-01-11T01:54:19;4.75;4.75;3.00
77239;PMS7003;66258;53.170;-2.240;2024-01-11T01:56:49;7.25;7.25;4.00
77239;PMS7003;66258;53.170;-2.240;2024-01-11T01:59:18;23.00;21.67;15.67
77239;PMS7003;66258;53.170;-2.240;2024-01-11T02:01:48;12.25;12.25;8.75
77239;PMS7003;66258;53.170;-2.240;2024-01-11T02:04:15;13.50;12.75;10.75
77239;PMS7003;66258;53.170;-2.240;2024-01-11T02:06:45;16.00;15.75;12.75
77239;PMS7003;66258;53.170;-2.240;2024-01-11T02:09:15;15.25;15.25;7.25
77239;PMS7003;66258;53.170;-2.240;2024-01-11T02:11:45;9.75;5.50;2.00
77239;PMS7003;66258;53.170;-2.240;2024-01-11T02:14:15;7.50;7.50;4.75
77239;PMS7003;66258;53.170;-2.240;2024-01-11T02:16:43;10.75;10.50;6.75
77239;PMS7003;66258;53.170;-2.240;2024-01-11T02:19:12;13.25;13.25;8.25
77239;PMS7003;66258;53.170;-2.240;2024-01-11T02:21:43;8.25;8.25;3.25
77239;PMS7003;66258;53.170;-2.240;2024-01-11T02:24:14;9.50;9.50;6.50
77239;PMS7003;66258;53.170;-2.240;2024-01-11T02:26:57;28.75;26.25;21.25
77239;PMS7003;66258;53.170;-2.240;2024-01-11T02:29:25;25.75;24.75;19.75
77239;PMS7003;66258;53.170;-2.240;2024-01-11T02:31:53;29.00;29.00;24.33
77239;PMS7003;66258;53.170;-2.240;2024-01-11T02:34:22;168.00;165.00;156.67
77239;PMS7003;66258;53.170;-2.240;2024-01-11T02:36:51;420.75;420.75;418.00
77239;PMS7003;66258;53.170;-2.240;2024-01-11T02:39:22;21.50;21.50;18.00
77239;PMS7003;66258;53.170;-2.240;2024-01-11T02:41:50;35.33;32.67;25.00
77239;PMS7003;66258;53.170;-2.240;2024-01-11T02:44:20;28.33;28.33;21.00
77239;PMS7003;66258;53.170;-2.240;2024-01-11T02:46:47;46.00;40.33;30.00
77239;PMS7003;66258;53.170;-2.240;2024-01-11T02:49:15;15.50;15.50;14.00
77239;PMS7003;66258;53.170;-2.240;2024-01-11T02:51:45;13.25;9.00;5.75
77239;PMS7003;66258;53.170;-2.240;2024-01-11T02:54:13;11.25;8.75;4.00
77239;PMS7003;66258;53.170;-2.240;2024-01-11T02:56:43;13.50;11.00;7.00
77239;PMS7003;66258;53.170;-2.240;2024-01-11T02:59:10;8.50;5.25;4.00
77239;PMS7003;66258;53.170;-2.240;2024-01-11T03:01:38;9.50;8.50;4.00
77239;PMS7003;66258;53.170;-2.240;2024-01-11T03:04:06;12.50;12.50;10.00
77239;PMS7003;66258;53.170;-2.240;2024-01-11T03:06:33;4.50;4.50;3.00
77239;PMS7003;66258;53.170;-2.240;2024-01-11T03:09:00;6.00;6.00;3.25
77239;PMS7003;66258;53.170;-2.240;2024-01-11T03:11:29;7.25;6.00;4.50
77239;PMS7003;66258;53.170;-2.240;2024-01-11T03:13:58;46.67;40.33;30.67
77239;PMS7003;66258;53.170;-2.240;2024-01-11T03:16:26;9.75;6.50;5.25
77239;PMS7003;66258;53.170;-2.240;2024-01-11T03:18:53;5.75;5.75;3.75
77239;PMS7003;66258;53.170;-2.240;2024-01-11T03:21:21;16.00;14.50;13.00
77239;PMS7003;66258;53.170;-2.240;2024-01-11T03:23:49;12.25;10.50;9.50
77239;PMS7003;66258;53.170;-2.240;2024-01-11T03:26:17;11.50;10.50;8.25
77239;PMS7003;66258;53.170;-2.240;2024-01-11T03:28:46;14.25;14.25;11.00
77239;PMS7003;66258;53.170;-2.240;2024-01-11T03:31:15;28.50;26.00;21.25
77239;PMS7003;66258;53.170;-2.240;2024-01-11T03:33:42;14.00;14.00;11.00
77239;PMS7003;66258;53.170;-2.240;2024-01-11T03:36:11;21.25;21.25;20.25
77239;PMS7003;66258;53.170;-2.240;2024-01-11T03:38:39;43.00;39.00;30.67
77239;PMS7003;66258;53.170;-2.240;2024-01-11T03:41:07;29.33;28.00;24.33
77239;PMS7003;66258;53.170;-2.240;2024-01-11T03:43:37;21.00;21.00;20.25
77239;PMS7003;66258;53.170;-2.240;2024-01-11T03:46:06;22.00;22.00;19.00
77239;PMS7003;66258;53.170;-2.240;2024-01-11T03:48:35;43.33;40.00;33.33
77239;PMS7003;66258;53.170;-2.240;2024-01-11T03:51:09;66.75;56.00;49.25
77239;PMS7003;66258;53.170;-2.240;2024-01-11T03:53:37;156.40;149.40;145.60
77239;PMS7003;66258;53.170;-2.240;2024-01-11T03:56:05;78.25;68.25;64.75
77239;PMS7003;66258;53.170;-2.240;2024-01-11T03:58:33;30.50;30.50;26.25
77239;PMS7003;66258;53.170;-2.240;2024-01-11T04:01:03;170.00;161.25;156.50
77239;PMS7003;66258;53.170;-2.240;2024-01-11T04:03:30;533.40;527.60;508.20
77239;PMS7003;66258;53.170;-2.240;2024-01-11T04:06:00;918.00;915.25;899.25
77239;PMS7003;66258;53.170;-2.240;2024-01-11T04:08:28;73.25;60.00;53.25
77239;PMS7003;66258;53.170;-2.240;2024-01-11T04:10:56;75.25;57.75;38.50
77239;PMS7003;66258;53.170;-2.240;2024-01-11T04:13:23;82.20;73.80;72.00
77239;PMS7003;66258;53.170;-2.240;2024-01-11T04:15:51;81.80;73.40;72.00
77239;PMS7003;66258;53.170;-2.240;2024-01-11T04:18:19;81.20;71.20;68.80
77239;PMS7003;66258;53.170;-2.240;2024-01-11T04:20:49;455.20;454.00;426.40
77239;PMS7003;66258;53.170;-2.240;2024-01-11T04:23:18;87.25;79.00;77.25
77239;PMS7003;66258;53.170;-2.240;2024-01-11T04:25:45;71.20;59.20;48.40
77239;PMS7003;66258;53.170;-2.240;2024-01-11T04:28:12;47.50;41.50;34.75
77239;PMS7003;66258;53.170;-2.240;2024-01-11T04:30:40;23.00;23.00;21.33
77239;PMS7003;66258;53.170;-2.240;2024-01-11T04:33:09;45.33;39.33;31.67
77239;PMS7003;66258;53.170;-2.240;2024-01-11T04:35:36;51.25;43.50;35.50
77239;PMS7003;66258;53.170;-2.240;2024-01-11T04:38:04;83.80;74.20;67.20
77239;PMS7003;66258;53.170;-2.240;2024-01-11T04:40:34;466.00;466.00;451.60
77239;PMS7003;66258;53.170;-2.240;2024-01-11T04:43:01;110.40;109.00;103.00
77239;PMS7003;66258;53.170;-2.240;2024-01-11T04:45:29;94.00;90.80;78.60
77239;PMS7003;66258;53.170;-2.240;2024-01-11T04:47:57;116.00;116.00;110.00
77239;PMS7003;66258;53.170;-2.240;2024-01-11T04:50:25;91.20;88.80;82.80
77239;PMS7003;66258;53.170;-2.240;2024-01-11T04:52:53;873.00;871.25;852.75
77239;PMS7003;66258;53.170;-2.240;2024-01-11T04:55:21;731.40;731.40;685.00
77239;PMS7003;66258;53.170;-2.240;2024-01-11T04:57:50;2424.00;2420.80;2380.00
77239;PMS7003;66258;53.170;-2.240;2024-01-11T05:00:18;951.20;951.20;914.00
77239;PMS7003;66258;53.170;-2.240;2024-01-11T05:02:46;2760.20;2760.20;2734.60
77239;PMS7003;66258;53.170;-2.240;2024-01-11T05:05:14;2745.80;2743.60;2716.80
77239;PMS7003;66258;53.170;-2.240;2024-01-11T05:07:42;2911.40;2910.40;2874.20
77239;PMS7003;66258;53.170;-2.240;2024-01-11T05:10:10;3983.40;3983.40;3983.40
77239;PMS7003;66258;53.170;-2.240;2024-01-11T05:12:38;3956.80;3956.80;3956.80
77239;PMS7003;66258;53.170;-2.240;2024-01-11T05:15:08;2632.50;2629.25;2595.25
77239;PMS7003;66258;53.170;-2.240;2024-01-11T05:17:36;3873.80;3873.80;3873.80
77239;PMS7003;66258;53.170;-2.240;2024-01-11T05:20:04;3681.25;3681.25;3670.50
77239;PMS7003;66258;53.170;-2.240;2024-01-11T05:22:32;3862.00;3862.00;3862.00
77239;PMS7003;66258;53.170;-2.240;2024-01-11T05:24:59;3900.20;3900.20;3900.20
77239;PMS7003;66258;53.170;-2.240;2024-01-11T05:27:27;3868.60;3868.60;3868.60
77239;PMS7003;66258;53.170;-2.240;2024-01-11T05:29:54;3811.80;3811.60;3808.00
77239;PMS7003;66258;53.170;-2.240;2024-01-11T05:32:23;3896.80;3896.80;3896.80
77239;PMS7003;66258;53.170;-2.240;2024-01-11T05:34:51;3063.80;3060.80;3025.00
77239;PMS7003;66258;53.170;-2.240;2024-01-11T05:37:19;2063.80;2062.20;2018.40
77239;PMS7003;66258;53.170;-2.240;2024-01-11T05:39:46;3992.80;3992.80;3992.80
77239;PMS7003;66258;53.170;-2.240;2024-01-11T05:42:14;4006.00;4006.00;4006.00
77239;PMS7003;66258;53.170;-2.240;2024-01-11T05:44:42;3977.75;3977.75;3977.75
77239;PMS7003;66258;53.170;-2.240;2024-01-11T05:47:09;3898.40;3898.40;3898.40
77239;PMS7003;66258;53.170;-2.240;2024-01-11T05:49:39;4003.75;4003.75;4003.75
77239;PMS7003;66258;53.170;-2.240;2024-01-11T05:52:06;3893.00;3893.00;3893.00
77239;PMS7003;66258;53.170;-2.240;2024-01-11T05:54:35;3598.75;3598.75;3598.75
77239;PMS7003;66258;53.170;-2.240;2024-01-11T05:57:03;3891.20;3891.20;3891.20
77239;PMS7003;66258;53.170;-2.240;2024-01-11T05:59:31;3983.00;3983.00;3983.00
77239;PMS7003;66258;53.170;-2.240;2024-01-11T06:01:58;3474.40;3472.00;3464.00
77239;PMS7003;66258;53.170;-2.240;2024-01-11T06:04:26;3.75;2.75;1.00
77239;PMS7003;66258;53.170;-2.240;2024-01-11T06:06:56;4.50;3.25;1.75
77239;PMS7003;66258;53.170;-2.240;2024-01-11T06:09:24;3914.80;3914.80;3914.80
77239;PMS7003;66258;53.170;-2.240;2024-01-11T06:11:53;3847.40;3847.40;3847.40
77239;PMS7003;66258;53.170;-2.240;2024-01-11T06:14:21;3274.00;3271.60;3249.20
77239;PMS7003;66258;53.170;-2.240;2024-01-11T06:16:48;3613.00;3611.40;3604.60
77239;PMS7003;66258;53.170;-2.240;2024-01-11T06:19:16;3918.40;3918.40;3918.40
77239;PMS7003;66258;53.170;-2.240;2024-01-11T06:21:44;3828.20;3828.20;3828.20
77239;PMS7003;66258;53.170;-2.240;2024-01-11T06:24:13;1616.80;1614.40;1572.00
77239;PMS7003;66258;53.170;-2.240;2024-01-11T06:26:40;3480.20;3477.60;3459.20
77239;PMS7003;66258;53.170;-2.240;2024-01-11T06:29:08;3885.80;3885.80;3885.80
77239;PMS7003;66258;53.170;-2.240;2024-01-11T06:31:35;3942.00;3942.00;3942.00
77239;PMS7003;66258;53.170;-2.240;2024-01-11T06:34:03;3927.60;3927.60;3927.60
77239;PMS7003;66258;53.170;-2.240;2024-01-11T06:36:31;3523.40;3522.40;3509.40
77239;PMS7003;66258;53.170;-2.240;2024-01-11T06:38:59;2519.60;2515.00;2470.80
77239;PMS7003;66258;53.170;-2.240;2024-01-11T06:41:28;3884.00;3883.80;3881.60
77239;PMS7003;66258;53.170;-2.240;2024-01-11T06:43:56;3896.60;3896.60;3896.60
77239;PMS7003;66258;53.170;-2.240;2024-01-11T06:46:27;4030.25;4030.25;4030.25
77239;PMS7003;66258;53.170;-2.240;2024-01-11T06:48:55;3983.00;3983.00;3983.00
77239;PMS7003;66258;53.170;-2.240;2024-01-11T06:51:22;3981.60;3981.60;3981.60
77239;PMS7003;66258;53.170;-2.240;2024-01-11T06:53:50;3783.20;3782.60;3776.00
77239;PMS7003;66258;53.170;-2.240;2024-01-11T06:56:19;3624.40;3620.40;3615.60
77239;PMS7003;66258;53.170;-2.240;2024-01-11T06:58:48;3908.50;3907.75;3906.25
77239;PMS7003;66258;53.170;-2.240;2024-01-11T07:01:16;4007.00;4007.00;4007.00
77239;PMS7003;66258;53.170;-2.240;2024-01-11T07:03:44;4003.75;4003.75;4003.75
77239;PMS7003;66258;53.170;-2.240;2024-01-11T07:06:12;3966.25;3966.25;3966.25
77239;PMS7003;66258;53.170;-2.240;2024-01-11T07:08:40;3917.75;3917.75;3917.75
77239;PMS7003;66258;53.170;-2.240;2024-01-11T07:11:08;3964.60;3964.60;3964.60
77239;PMS7003;66258;53.170;-2.240;2024-01-11T07:13:36;3898.60;3898.60;3898.60
77239;PMS7003;66258;53.170;-2.240;2024-01-11T07:16:05;4001.80;4001.80;4001.80
77239;PMS7003;66258;53.170;-2.240;2024-01-11T07:18:33;3996.50;3996.50;3996.50
77239;PMS7003;66258;53.170;-2.240;2024-01-11T07:21:03;4016.67;4016.67;4016.67
77239;PMS7003;66258;53.170;-2.240;2024-01-11T07:23:31;3987.25;3987.25;3987.25
77239;PMS7003;66258;53.170;-2.240;2024-01-11T07:25:58;4.50;4.50;1.75
77239;PMS7003;66258;53.170;-2.240;2024-01-11T07:28:26;3827.75;3827.75;3827.50
77239;PMS7003;66258;53.170;-2.240;2024-01-11T07:30:54;1393.75;1393.75;1392.00
77239;PMS7003;66258;53.170;-2.240;2024-01-11T07:33:23;3932.33;3932.33;3932.33
77239;PMS7003;66258;53.170;-2.240;2024-01-11T07:35:51;3961.75;3961.75;3961.75
77239;PMS7003;66258;53.170;-2.240;2024-01-11T07:38:19;3957.00;3957.00;3957.00
77239;PMS7003;66258;53.170;-2.240;2024-01-11T07:40:46;3922.80;3922.80;3921.80
77239;PMS7003;66258;53.170;-2.240;2024-01-11T07:43:14;3379.60;3379.00;3358.40
77239;PMS7003;66258;53.170;-2.240;2024-01-11T07:45:42;3929.20;3929.20;3929.20
77239;PMS7003;66258;53.170;-2.240;2024-01-11T07:48:10;3924.75;3924.75;3924.75
77239;PMS7003;66258;53.170;-2.240;2024-01-11T07:50:39;3991.33;3991.33;3991.33
77239;PMS7003;66258;53.170;-2.240;2024-01-11T07:53:07;4013.60;4013.60;4013.60
77239;PMS7003;66258;53.170;-2.240;2024-01-11T07:55:34;3914.80;3914.80;3914.80
77239;PMS7003;66258;53.170;-2.240;2024-01-11T07:58:01;3815.00;3814.40;3804.20
77239;PMS7003;66258;53.170;-2.240;2024-01-11T08:00:28;3977.75;3977.75;3977.75
77239;PMS7003;66258;53.170;-2.240;2024-01-11T08:02:56;4003.75;4003.75;4003.75
77239;PMS7003;66258;53.170;-2.240;2024-01-11T08:05:24;40.67;37.67;28.00
77239;PMS7003;66258;53.170;-2.240;2024-01-11T08:07:54;30.67;30.33;24.33
77239;PMS7003;66258;53.170;-2.240;2024-01-11T08:10:22;24.25;24.25;20.50
77239;PMS7003;66258;53.170;-2.240;2024-01-11T08:12:49;14.25;14.25;10.50
77239;PMS7003;66258;53.170;-2.240;2024-01-11T08:15:17;53.67;47.00;37.67
77239;PMS7003;66258;53.170;-2.240;2024-01-11T08:17:45;88.25;79.75;76.75
77239;PMS7003;66258;53.170;-2.240;2024-01-11T08:20:15;64.00;53.00;45.33
77239;PMS7003;66258;53.170;-2.240;2024-01-11T08:22:43;58.00;50.00;40.33
77239;PMS7003;66258;53.170;-2.240;2024-01-11T08:25:11;22.67;20.00;17.00
77239;PMS7003;66258;53.170;-2.240;2024-01-11T08:27:38;1432.00;1432.00;1430.00
77239;PMS7003;66258;53.170;-2.240;2024-01-11T08:30:07;2649.25;2649.25;2648.25
77239;PMS7003;66258;53.170;-2.240;2024-01-11T08:32:34;21.00;21.00;17.75
77239;PMS7003;66258;53.170;-2.240;2024-01-11T08:35:02;28.25;23.50;18.75
77239;PMS7003;66258;53.170;-2.240;2024-01-11T08:37:29;56.25;47.50;33.25
77239;PMS7003;66258;53.170;-2.240;2024-01-11T08:39:56;87.25;79.25;73.75
77239;PMS7003;66258;53.170;-2.240;2024-01-11T08:42:24;66.00;55.00;45.67
77239;PMS7003;66258;53.170;-2.240;2024-01-11T08:44:51;61.50;52.00;39.50
77239;PMS7003;66258;53.170;-2.240;2024-01-11T08:47:21;160.00;150.25;139.25
77239;PMS7003;66258;53.170;-2.240;2024-01-11T08:49:48;81.25;67.00;49.50
77239;PMS7003;66258;53.170;-2.240;2024-01-11T08:52:15;3954.75;3954.75;3954.75
77239;PMS7003;66258;53.170;-2.240;2024-01-11T08:54:44;15.25;12.00;6.50
77239;PMS7003;66258;53.170;-2.240;2024-01-11T08:57:11;3875.25;3875.25;3875.25
77239;PMS7003;66258;53.170;-2.240;2024-01-11T08:59:41;10.75;10.75;5.25
77239;PMS7003;66258;53.170;-2.240;2024-01-11T09:02:11;8.25;8.25;4.25
77239;PMS7003;66258;53.170;-2.240;2024-01-11T09:04:45;8.75;8.75;7.00
77239;PMS7003;66258;53.170;-2.240;2024-01-11T09:07:12;10.00;10.00;2.50
77239;PMS7003;66258;53.170;-2.240;2024-01-11T09:09:39;8.75;8.75;5.00
77239;PMS7003;66258;53.170;-2.240;2024-01-11T09:12:19;9.00;9.00;5.00
77239;PMS7003;66258;53.170;-2.240;2024-01-11T09:14:47;13.50;9.50;5.00
77239;PMS7003;66258;53.170;-2.240;2024-01-11T09:17:14;9.50;9.50;5.00
77239;PMS7003;66258;53.170;-2.240;2024-01-11T09:19:42;3860.00;3860.00;3860.00
77239;PMS7003;66258;53.170;-2.240;2024-01-11T09:22:09;3838.00;3838.00;3838.00
77239;PMS7003;66258;53.170;-2.240;2024-01-11T09:24:37;3857.75;3857.75;3857.75
77239;PMS7003;66258;53.170;-2.240;2024-01-11T09:27:05;3812.25;3812.25;3812.25
77239;PMS7003;66258;53.170;-2.240;2024-01-11T09:29:32;3856.00;3856.00;3856.00
77239;PMS7003;66258;53.170;-2.240;2024-01-11T09:32:00;3154.20;3145.00;3133.60
77239;PMS7003;66258;53.170;-2.240;2024-01-11T09:34:29;3803.25;3803.25;3803.25
77239;PMS7003;66258;53.170;-2.240;2024-01-11T09:36:56;3790.75;3790.75;3790.75
77239;PMS7003;66258;53.170;-2.240;2024-01-11T09:39:23;3765.50;3765.50;3765.50
77239;PMS7003;66258;53.170;-2.240;2024-01-11T09:41:51;3773.50;3773.50;3773.50
77239;PMS7003;66258;53.170;-2.240;2024-01-11T09:44:24;3802.20;3802.20;3802.20
77239;PMS7003;66258;53.170;-2.240;2024-01-11T09:46:52;3779.50;3779.50;3779.50
77239;PMS7003;66258;53.170;-2.240;2024-01-11T09:49:22;3830.00;3830.00;3830.00
77239;PMS7003;66258;53.170;-2.240;2024-01-11T09:51:49;3761.60;3761.60;3761.60
77239;PMS7003;66258;53.170;-2.240;2024-01-11T09:54:17;3748.00;3748.00;3748.00
77239;PMS7003;66258;53.170;-2.240;2024-01-11T09:56:45;3372.60;3369.40;3358.40
77239;PMS7003;66258;53.170;-2.240;2024-01-11T09:59:12;3711.40;3711.40;3711.40
77239;PMS7003;66258;53.170;-2.240;2024-01-11T10:01:40;3706.80;3706.80;3706.80
77239;PMS7003;66258;53.170;-2.240;2024-01-11T10:04:07;3717.25;3717.25;3717.25
77239;PMS7003;66258;53.170;-2.240;2024-01-11T10:06:36;3701.00;3701.00;3701.00
77239;PMS7003;66258;53.170;-2.240;2024-01-11T10:09:05;3705.50;3705.50;3705.50
77239;PMS7003;66258;53.170;-2.240;2024-01-11T10:11:32;3689.40;3689.40;3689.40
77239;PMS7003;66258;53.170;-2.240;2024-01-11T10:13:58;3693.25;3693.25;3693.25
77239;PMS7003;66258;53.170;-2.240;2024-01-11T10:16:26;2099.60;2083.80;2023.60
77239;PMS7003;66258;53.170;-2.240;2024-01-11T10:19:00;3726.40;3726.40;3726.40
77239;PMS7003;66258;53.170;-2.240;2024-01-11T10:21:27;1922.80;1908.20;1870.80
77239;PMS7003;66258;53.170;-2.240;2024-01-11T10:23:56;3288.80;3285.80;3276.80
77239;PMS7003;66258;53.170;-2.240;2024-01-11T10:26:24;1854.60;1846.40;1798.60
77239;PMS7003;66258;53.170;-2.240;2024-01-11T10:28:51;712.00;686.40;611.40
77239;PMS7003;66258;53.170;-2.240;2024-01-11T10:31:19;3733.20;3733.20;3733.20
77239;PMS7003;66258;53.170;-2.240;2024-01-11T10:33:48;3697.25;3697.25;3697.25
77239;PMS7003;66258;53.170;-2.240;2024-01-11T10:36:15;2393.60;2386.60;2355.20
77239;PMS7003;66258;53.170;-2.240;2024-01-11T10:38:43;2743.00;2730.20;2701.80
77239;PMS7003;66258;53.170;-2.240;2024-01-11T10:41:15;3310.80;3306.00;3288.80
77239;PMS7003;66258;53.170;-2.240;2024-01-11T10:43:45;3310.20;3305.00;3288.80
77239;PMS7003;66258;53.170;-2.240;2024-01-11T10:46:15;3657.00;3657.00;3657.00
77239;PMS7003;66258;53.170;-2.240;2024-01-11T10:48:45;3652.20;3652.20;3652.20
77239;PMS7003;66258;53.170;-2.240;2024-01-11T10:51:17;3294.50;3289.75;3268.50
77239;PMS7003;66258;53.170;-2.240;2024-01-11T10:53:49;3659.00;3659.00;3659.00
77239;PMS7003;66258;53.170;-2.240;2024-01-11T10:56:19;3639.75;3639.75;3639.75
77239;PMS7003;66258;53.170;-2.240;2024-01-11T10:58:47;3631.75;3631.75;3631.75
77239;PMS7003;66258;53.170;-2.240;2024-01-11T11:01:16;3548.75;3547.25;3542.50
77239;PMS7003;66258;53.170;-2.240;2024-01-11T11:03:45;3624.20;3624.20;3624.20
77239;PMS7003;66258;53.170;-2.240;2024-01-11T11:06:14;3604.50;3604.50;3604.50
77239;PMS7003;66258;53.170;-2.240;2024-01-11T11:08:46;3627.75;3627.75;3627.75
77239;PMS7003;66258;53.170;-2.240;2024-01-11T11:11:16;3608.50;3608.50;3608.50
77239;PMS7003;66258;53.170;-2.240;2024-01-11T11:13:46;1416.00;1396.00;1370.00
77239;PMS7003;66258;53.170;-2.240;2024-01-11T11:16:14;2842.00;2840.75;2801.50
77239;PMS7003;66258;53.170;-2.240;2024-01-11T11:18:41;1904.50;1895.00;1817.25
77239;PMS7003;66258;53.170;-2.240;2024-01-11T11:21:09;1905.50;1899.25;1841.25
77239;PMS7003;66258;53.170;-2.240;2024-01-11T11:23:36;3112.50;3110.00;3083.50
77239;PMS7003;66258;53.170;-2.240;2024-01-11T11:26:05;2850.25;2850.25;2808.00
77239;PMS7003;66258;53.170;-2.240;2024-01-11T11:28:34;2863.75;2861.75;2824.25
77239;PMS7003;66258;53.170;-2.240;2024-01-11T11:31:03;872.75;868.75;766.50
77239;PMS7003;66258;53.170;-2.240;2024-01-11T11:33:30;1796.20;1780.60;1733.60
77239;PMS7003;66258;53.170;-2.240;2024-01-11T11:35:58;222.50;215.00;148.75
77239;PMS7003;66258;53.170;-2.240;2024-01-11T11:38:26;541.00;530.25;499.50
77239;PMS7003;66258;53.170;-2.240;2024-01-11T11:40:54;112.75;111.25;54.00
77239;PMS7003;66258;53.170;-2.240;2024-01-11T11:43:23;752.75;752.25;684.25
77239;PMS7003;66258;53.170;-2.240;2024-01-11T11:45:54;228.50;224.75;153.50
77239;PMS7003;66258;53.170;-2.240;2024-01-11T11:51:16;122.00;121.25;60.25
77239;PMS7003;66258;53.170;-2.240;2024-01-11T11:53:46;300.00;299.50;230.25
77239;PMS7003;66258;53.170;-2.240;2024-01-11T11:56:15;440.00;438.00;412.40
77239;PMS7003;66258;53.170;-2.240;2024-01-11T11:58:44;84.20;81.40;77.80
77239;PMS7003;66258;53.170;-2.240;2024-01-11T12:01:14;104.20;104.20;77.60
77239;PMS7003;66258;53.170;-2.240;2024-01-11T12:03:43;541.50;536.75;491.25
77239;PMS7003;66258;53.170;-2.240;2024-01-11T12:06:11;109.00;108.00;57.80
77239;PMS7003;66258;53.170;-2.240;2024-01-11T12:08:38;124.25;124.00;66.25
77239;PMS7003;66258;53.170;-2.240;2024-01-11T12:11:08;704.25;704.00;681.00
77239;PMS7003;66258;53.170;-2.240;2024-01-11T12:13:37;69.75;56.00;45.75
77239;PMS7003;66258;53.170;-2.240;2024-01-11T12:16:04;88.67;87.33;79.67
77239;PMS7003;66258;53.170;-2.240;2024-01-11T12:18:33;88.00;86.20;85.20
77239;PMS7003;66258;53.170;-2.240;2024-01-11T12:21:00;79.40;73.00;69.80
77239;PMS7003;66258;53.170;-2.240;2024-01-11T12:23:27;86.80;85.20;79.40
77239;PMS7003;66258;53.170;-2.240;2024-01-11T12:25:54;100.80;100.80;87.00
77239;PMS7003;66258;53.170;-2.240;2024-01-11T12:28:21;297.80;296.80;283.00
77239;PMS7003;66258;53.170;-2.240;2024-01-11T12:30:48;78.40;72.80;67.60
77239;PMS7003;66258;53.170;-2.240;2024-01-11T12:33:16;547.75;547.00;537.00
77239;PMS7003;66258;53.170;-2.240;2024-01-11T12:35:45;97.40;96.80;76.80
77239;PMS7003;66258;53.170;-2.240;2024-01-11T12:38:13;91.60;89.80;79.80
77239;PMS7003;66258;53.170;-2.240;2024-01-11T12:40:40;102.80;101.40;95.40
77239;PMS7003;66258;53.170;-2.240;2024-01-11T12:43:07;102.40;102.40;86.60
77239;PMS7003;66258;53.170;-2.240;2024-01-11T12:45:34;115.75;114.25;100.25
77239;PMS7003;66258;53.170;-2.240;2024-01-11T12:48:02;116.40;115.00;65.20
77239;PMS7003;66258;53.170;-2.240;2024-01-11T12:50:30;525.60;520.20;479.60
77239;PMS7003;66258;53.170;-2.240;2024-01-11T12:53:08;432.20;432.20;407.60
77239;PMS7003;66258;53.170;-2.240;2024-01-11T12:55:36;102.80;102.60;64.40
77239;PMS7003;66258;53.170;-2.240;2024-01-11T12:58:20;1168.40;1168.40;1117.20
77239;PMS7003;66258;53.170;-2.240;2024-01-11T13:00:49;1508.75;1508.00;1464.25
77239;PMS7003;66258;53.170;-2.240;2024-01-11T13:03:16;1199.75;1194.75;1115.25
77239;PMS7003;66258;53.170;-2.240;2024-01-11T13:05:42;573.50;569.25;502.75
77239;PMS7003;66258;53.170;-2.240;2024-01-11T13:08:11;504.00;504.00;407.00
77239;PMS7003;66258;53.170;-2.240;2024-01-11T13:10:38;1541.00;1538.25;1469.50
77239;PMS7003;66258;53.170;-2.240;2024-01-11T13:13:05;981.50;980.50;949.00
77239;PMS7003;66258;53.170;-2.240;2024-01-11T13:15:35;2302.75;2300.75;2242.50